Time,TemperatureF,DewpointF,PressureIn,WindDirection,WindDirectionDegrees,WindSpeedMPH,WindSpeedGustMPH,Humidity,HourlyPrecipIn,Conditions,Clouds,dailyrainin,SoftwareType,DateUTC
2013-04-25 00:00:00,62.1,50.6,0.00,North,357,0.0,0.0,66,0.00,,---,0.00,VWS V13.01,2013-04-25 04:00:00,
2013-04-25 00:01:00,62.1,50.6,0.00,North,357,0.0,0.0,66,0.00,,---,0.00,VWS V13.01,2013-04-25 04:01:00,
2013-04-25 00:06:00,62.1,51.4,0.00,North,1,0.0,3.6,68,0.00,,---,0.00,VWS V13.01,2013-04-25 04:06:00,
2013-04-25 00:11:00,62.6,51.5,0.00,NNW,330,6.3,11.0,67,0.00,,---,0.00,VWS V13.01,2013-04-25 04:11:00,
2013-04-25 00:16:00,63.1,50.3,0.00,NW,325,4.0,11.0,63,0.00,,---,0.00,VWS V13.01,2013-04-25 04:16:00,
2013-04-25 00:21:00,63.3,49.7,0.00,North,0,3.1,6.3,61,0.00,,---,0.00,VWS V13.01,2013-04-25 04:21:00,
2013-04-25 00:27:00,63.1,48.1,0.00,NW,307,4.9,6.3,58,0.00,,---,0.00,VWS V13.01,2013-04-25 04:27:00,
2013-04-25 00:32:00,63.0,46.1,0.00,North,5,4.0,7.6,54,0.00,,---,0.00,VWS V13.01,2013-04-25 04:32:00,
2013-04-25 00:37:00,62.6,45.7,0.00,NNW,348,5.4,8.1,54,0.00,,---,0.00,VWS V13.01,2013-04-25 04:37:00,
2013-04-25 00:42:00,62.2,45.4,0.00,North,5,5.8,7.6,54,0.00,,---,0.00,VWS V13.01,2013-04-25 04:42:00,
2013-04-25 00:47:00,62.1,45.2,0.00,NNW,333,6.3,7.6,54,0.00,,---,0.00,VWS V13.01,2013-04-25 04:47:00,
2013-04-25 00:52:00,61.9,44.1,0.00,NNW,328,5.4,8.7,52,0.00,,---,0.00,VWS V13.01,2013-04-25 04:52:00,
2013-04-25 00:57:00,61.7,44.4,0.00,North,353,3.6,8.7,53,0.00,,---,0.00,VWS V13.01,2013-04-25 04:57:00,
2013-04-25 01:02:00,61.5,43.8,0.00,NW,319,2.7,8.3,52,0.00,,---,0.00,VWS V13.01,2013-04-25 05:02:00,
2013-04-25 01:07:00,61.3,43.6,0.00,North,350,2.7,8.3,52,0.00,,---,0.00,VWS V13.01,2013-04-25 05:07:00,
2013-04-25 01:12:00,61.2,42.9,0.00,North,353,5.4,8.3,51,0.00,,---,0.00,VWS V13.01,2013-04-25 05:12:00,
2013-04-25 01:17:00,61.0,41.7,0.00,NNE,27,3.1,8.3,49,0.00,,---,0.00,VWS V13.01,2013-04-25 05:17:00,
2013-04-25 01:22:00,60.6,41.9,0.00,North,357,2.2,6.3,50,0.00,,---,0.00,VWS V13.01,2013-04-25 05:22:00,
2013-04-25 01:28:00,60.6,41.9,0.00,NW,326,5.4,8.3,50,0.00,,---,0.00,VWS V13.01,2013-04-25 05:28:00,
2013-04-25 01:33:00,60.4,41.7,0.00,NNE,14,2.7,8.3,50,0.00,,---,0.00,VWS V13.01,2013-04-25 05:33:00,
2013-04-25 01:38:00,60.4,41.7,0.00,NNW,345,3.1,8.3,50,0.00,,---,0.00,VWS V13.01,2013-04-25 05:38:00,
2013-04-25 01:43:00,60.3,41.6,0.00,NNW,334,3.6,4.5,50,0.00,,---,0.00,VWS V13.01,2013-04-25 05:43:00,
2013-04-25 01:48:00,60.1,41.4,0.00,NNE,16,3.1,5.4,50,0.00,,---,0.00,VWS V13.01,2013-04-25 05:48:00,
2013-04-25 01:53:00,59.9,40.7,0.00,NNW,338,3.1,5.4,49,0.00,,---,0.00,VWS V13.01,2013-04-25 05:53:00,
2013-04-25 01:58:00,59.7,40.5,0.00,NNW,334,3.1,5.4,49,0.00,,---,0.00,VWS V13.01,2013-04-25 05:58:00,
2013-04-25 02:03:00,59.7,41.1,0.00,North,11,0.0,5.4,50,0.00,,---,0.00,VWS V13.01,2013-04-25 06:03:00,
2013-04-25 02:08:00,59.4,40.7,0.00,NNW,344,3.1,5.4,50,0.00,,---,0.00,VWS V13.01,2013-04-25 06:08:00,
2013-04-25 02:13:00,59.2,40.0,0.00,NNW,346,2.7,5.8,49,0.00,,---,0.00,VWS V13.01,2013-04-25 06:13:00,
2013-04-25 02:18:00,59.0,39.9,0.00,North,353,3.1,5.8,49,0.00,,---,0.00,VWS V13.01,2013-04-25 06:18:00,
2013-04-25 02:23:00,58.6,40.1,0.00,North,357,0.0,0.0,50,0.00,,---,0.00,VWS V13.01,2013-04-25 06:23:00,
2013-04-25 02:28:00,58.5,39.4,0.00,NNW,337,2.2,5.8,49,0.00,,---,0.00,VWS V13.01,2013-04-25 06:28:00,
2013-04-25 02:33:00,58.1,39.6,0.00,NNW,335,3.6,6.3,50,0.00,,---,0.00,VWS V13.01,2013-04-25 06:33:00,
2013-04-25 02:38:00,57.9,38.9,0.00,NW,306,4.9,6.3,49,0.00,,---,0.00,VWS V13.01,2013-04-25 06:38:00,
2013-04-25 02:43:00,57.7,38.2,0.00,North,0,4.0,5.8,48,0.00,,---,0.00,VWS V13.01,2013-04-25 06:43:00,
2013-04-25 02:49:00,57.6,38.0,0.00,NNE,13,2.2,7.6,48,0.00,,---,0.00,VWS V13.01,2013-04-25 06:49:00,
2013-04-25 02:54:00,57.2,37.7,0.00,NNW,336,4.9,8.3,48,0.00,,---,0.00,VWS V13.01,2013-04-25 06:54:00,
2013-04-25 02:59:00,57.0,37.5,0.00,NNE,13,2.7,8.3,48,0.00,,---,0.00,VWS V13.01,2013-04-25 06:59:00,
2013-04-25 03:04:00,56.7,37.2,0.00,NNE,15,2.2,5.4,48,0.00,,---,0.00,VWS V13.01,2013-04-25 07:04:00,
2013-04-25 03:09:00,56.5,37.6,0.00,NNE,21,0.0,5.8,49,0.00,,---,0.00,VWS V13.01,2013-04-25 07:09:00,
2013-04-25 03:14:00,56.3,37.4,0.00,NNE,27,4.5,5.8,49,0.00,,---,0.00,VWS V13.01,2013-04-25 07:14:00,
2013-04-25 03:19:00,56.1,37.2,0.00,NNW,333,0.0,7.2,49,0.00,,---,0.00,VWS V13.01,2013-04-25 07:19:00,
2013-04-25 03:24:00,55.9,37.1,0.00,NE,50,3.1,6.7,49,0.00,,---,0.00,VWS V13.01,2013-04-25 07:24:00,
2013-04-25 03:29:00,55.6,36.7,0.00,North,1,2.2,6.7,49,0.00,,---,0.00,VWS V13.01,2013-04-25 07:29:00,
2013-04-25 03:34:00,55.6,36.7,0.00,North,357,3.6,8.1,49,0.00,,---,0.00,VWS V13.01,2013-04-25 07:34:00,
2013-04-25 03:39:00,55.2,36.4,0.00,North,350,5.4,8.1,49,0.00,,---,0.00,VWS V13.01,2013-04-25 07:39:00,
2013-04-25 03:44:00,55.0,36.2,0.00,North,357,3.1,5.8,49,0.00,,---,0.00,VWS V13.01,2013-04-25 07:44:00,
2013-04-25 03:49:00,54.9,36.1,0.00,NW,319,6.3,6.3,49,0.00,,---,0.00,VWS V13.01,2013-04-25 07:49:00,
2013-04-25 03:54:00,54.7,35.4,0.00,NNE,19,5.4,7.6,48,0.00,,---,0.00,VWS V13.01,2013-04-25 07:54:00,
2013-04-25 03:59:00,54.5,34.7,0.00,NNW,339,7.2,8.1,47,0.00,,---,0.00,VWS V13.01,2013-04-25 07:59:00,
2013-04-25 04:04:00,54.0,34.2,0.00,North,357,2.7,8.7,47,0.00,,---,0.00,VWS V13.01,2013-04-25 08:04:00,
2013-04-25 04:09:00,53.8,34.0,0.00,North,5,0.0,8.7,47,0.00,,---,0.00,VWS V13.01,2013-04-25 08:09:00,
2013-04-25 04:14:00,53.4,34.2,0.00,NW,314,3.6,8.7,48,0.00,,---,0.00,VWS V13.01,2013-04-25 08:14:00,
2013-04-25 04:19:00,53.2,34.1,0.00,North,357,3.1,8.7,48,0.00,,---,0.00,VWS V13.01,2013-04-25 08:19:00,
2013-04-25 04:24:00,53.1,32.8,0.00,NNW,346,2.2,8.1,46,0.00,,---,0.00,VWS V13.01,2013-04-25 08:24:00,
2013-04-25 04:29:00,52.7,32.0,0.00,NE,37,4.0,10.1,45,0.00,,---,0.00,VWS V13.01,2013-04-25 08:29:00,
2013-04-25 04:34:00,52.5,31.2,0.00,North,353,3.1,10.1,44,0.00,,---,0.00,VWS V13.01,2013-04-25 08:34:00,
2013-04-25 04:39:00,52.5,30.7,0.00,North,0,3.1,10.1,43,0.00,,---,0.00,VWS V13.01,2013-04-25 08:39:00,
2013-04-25 04:44:00,52.5,30.7,0.00,North,7,2.7,4.0,43,0.00,,---,0.00,VWS V13.01,2013-04-25 08:44:00,
2013-04-25 04:49:00,52.3,30.5,0.00,NW,324,3.1,6.3,43,0.00,,---,0.00,VWS V13.01,2013-04-25 08:49:00,
2013-04-25 04:54:00,52.3,31.1,0.00,NW,326,4.0,6.3,44,0.00,,---,0.00,VWS V13.01,2013-04-25 08:54:00,
2013-04-25 04:59:00,52.3,31.1,0.00,NNW,346,3.1,6.3,44,0.00,,---,0.00,VWS V13.01,2013-04-25 08:59:00,
2013-04-25 05:04:00,52.3,31.6,0.00,NNE,27,0.0,4.0,45,0.00,,---,0.00,VWS V13.01,2013-04-25 09:04:00,
2013-04-25 05:09:00,52.2,30.9,0.00,North,8,0.0,6.3,44,0.00,,---,0.00,VWS V13.01,2013-04-25 09:09:00,
2013-04-25 05:14:00,52.0,31.9,0.00,NNW,343,0.0,6.3,46,0.00,,---,0.00,VWS V13.01,2013-04-25 09:14:00,
2013-04-25 05:19:00,51.8,31.1,0.00,NNW,344,0.0,6.3,45,0.00,,---,0.00,VWS V13.01,2013-04-25 09:19:00,
2013-04-25 05:24:00,51.6,31.0,0.00,North,357,0.0,3.1,45,0.00,,---,0.00,VWS V13.01,2013-04-25 09:24:00,
2013-04-25 05:29:00,51.4,30.8,0.00,NNE,25,3.1,5.8,45,0.00,,---,0.00,VWS V13.01,2013-04-25 09:29:00,
2013-04-25 05:34:00,51.4,30.8,0.00,NNW,337,3.6,6.3,45,0.00,,---,0.00,VWS V13.01,2013-04-25 09:34:00,
2013-04-25 05:39:00,51.3,30.7,0.00,NNW,342,0.0,6.3,45,0.00,,---,0.00,VWS V13.01,2013-04-25 09:39:00,
2013-04-25 05:45:00,51.3,30.7,0.00,NNW,331,3.1,5.4,45,0.00,,---,0.00,VWS V13.01,2013-04-25 09:45:00,
2013-04-25 05:50:00,51.3,30.7,0.00,North,0,2.7,6.3,45,0.00,,---,0.00,VWS V13.01,2013-04-25 09:50:00,
2013-04-25 05:55:00,51.1,30.0,0.00,NNW,342,3.1,6.3,44,0.00,,---,0.00,VWS V13.01,2013-04-25 09:55:00,
2013-04-25 06:00:00,50.9,29.8,0.00,North,357,0.0,6.3,44,0.00,,---,0.00,VWS V13.01,2013-04-25 10:00:00,
2013-04-25 06:05:00,50.7,29.6,0.00,North,11,0.0,4.0,44,0.00,,---,0.00,VWS V13.01,2013-04-25 10:05:00,
2013-04-25 06:10:00,50.5,29.5,0.00,North,3,0.0,4.9,44,0.00,,---,0.00,VWS V13.01,2013-04-25 10:10:00,
2013-04-25 06:15:00,50.4,29.8,0.00,North,3,2.2,4.9,45,0.00,,---,0.00,VWS V13.01,2013-04-25 10:15:00,
2013-04-25 06:20:00,50.2,29.7,0.00,North,4,2.2,3.6,45,0.00,,---,0.00,VWS V13.01,2013-04-25 10:20:00,
2013-04-25 06:25:00,49.8,29.4,0.00,NNW,345,0.0,4.0,45,0.00,,---,0.00,VWS V13.01,2013-04-25 10:25:00,
2013-04-25 06:30:00,49.6,29.7,0.00,North,0,0.0,4.0,46,0.00,,---,0.00,VWS V13.01,2013-04-25 10:30:00,
2013-04-25 06:35:00,49.5,29.6,0.00,NNE,19,0.0,4.0,46,0.00,,---,0.00,VWS V13.01,2013-04-25 10:35:00,
2013-04-25 06:40:00,49.3,29.4,0.00,NNW,337,3.1,3.1,46,0.00,,---,0.00,VWS V13.01,2013-04-25 10:40:00,
2013-04-25 06:45:00,49.1,29.2,0.00,NNW,345,0.0,3.1,46,0.00,,---,0.00,VWS V13.01,2013-04-25 10:45:00,
2013-04-25 06:50:00,48.9,29.6,0.00,NNW,345,0.0,3.1,47,0.00,,---,0.00,VWS V13.01,2013-04-25 10:50:00,
2013-04-25 06:55:00,48.7,29.4,0.00,NNW,345,0.0,3.1,47,0.00,,---,0.00,VWS V13.01,2013-04-25 10:55:00,
2013-04-25 07:00:00,48.6,29.3,0.00,NNW,344,0.0,0.0,47,0.00,,---,0.00,VWS V13.01,2013-04-25 11:00:00,
2013-04-25 07:05:00,48.4,29.1,0.00,NNW,345,0.0,0.0,47,0.00,,---,0.00,VWS V13.01,2013-04-25 11:05:00,
2013-04-25 07:10:00,48.4,29.1,0.00,NNW,345,0.0,0.0,47,0.00,,---,0.00,VWS V13.01,2013-04-25 11:10:00,
2013-04-25 07:15:00,48.2,29.5,0.00,NNW,348,0.0,0.0,48,0.00,,---,0.00,VWS V13.01,2013-04-25 11:15:00,
2013-04-25 07:20:00,48.0,29.8,0.00,NNW,348,0.0,0.0,49,0.00,,---,0.00,VWS V13.01,2013-04-25 11:20:00,
2013-04-25 07:25:00,47.8,29.6,0.00,NNW,348,0.0,0.0,49,0.00,,---,0.00,VWS V13.01,2013-04-25 11:25:00,
2013-04-25 07:30:00,47.8,30.1,0.00,NNW,348,0.0,0.0,50,0.00,,---,0.00,VWS V13.01,2013-04-25 11:30:00,
2013-04-25 07:35:00,47.7,30.4,0.00,NNW,348,0.0,0.0,51,0.00,,---,0.00,VWS V13.01,2013-04-25 11:35:00,
2013-04-25 07:40:00,47.7,30.4,0.00,NNW,348,0.0,0.0,51,0.00,,---,0.00,VWS V13.01,2013-04-25 11:40:00,
2013-04-25 07:45:00,48.0,30.8,0.00,NNW,348,0.0,0.0,51,0.00,,---,0.00,VWS V13.01,2013-04-25 11:45:00,
2013-04-25 07:50:00,48.4,30.1,0.00,NNW,348,0.0,0.0,49,0.00,,---,0.00,VWS V13.01,2013-04-25 11:50:00,
2013-04-25 07:56:00,48.7,30.5,0.00,NNW,348,0.0,0.0,49,0.00,,---,0.00,VWS V13.01,2013-04-25 11:56:00,
2013-04-25 08:01:00,48.9,30.1,0.00,NNW,345,4.0,4.0,48,0.00,,---,0.00,VWS V13.01,2013-04-25 12:01:00,
2013-04-25 08:06:00,48.9,29.6,0.00,NW,320,0.0,4.0,47,0.00,,---,0.00,VWS V13.01,2013-04-25 12:06:00,
2013-04-25 08:11:00,49.1,29.8,0.00,NNW,328,0.0,4.0,47,0.00,,---,0.00,VWS V13.01,2013-04-25 12:11:00,
2013-04-25 08:15:00,49.3,29.9,0.00,NNW,337,0.0,4.0,47,0.00,,---,0.00,VWS V13.01,2013-04-25 12:15:00,
2013-04-25 08:20:00,49.5,29.0,0.00,NNW,334,0.0,0.0,45,0.00,,---,0.00,VWS V13.01,2013-04-25 12:20:00,
2013-04-25 08:25:00,49.8,28.8,0.00,NNE,22,2.7,3.1,44,0.00,,---,0.00,VWS V13.01,2013-04-25 12:25:00,
2013-04-25 08:30:00,49.8,28.2,0.00,NNW,334,4.0,5.8,43,0.00,,---,0.00,VWS V13.01,2013-04-25 12:30:00,
2013-04-25 08:35:00,50.0,27.8,0.00,North,2,0.0,5.8,42,0.00,,---,0.00,VWS V13.01,2013-04-25 12:35:00,
2013-04-25 08:40:00,50.2,27.4,0.00,NNE,16,4.0,4.0,41,0.00,,---,0.00,VWS V13.01,2013-04-25 12:40:00,
2013-04-25 08:45:00,50.4,27.6,0.00,NNE,25,2.7,4.0,41,0.00,,---,0.00,VWS V13.01,2013-04-25 12:45:00,
2013-04-25 08:50:00,50.5,27.1,0.00,NNE,33,3.6,5.4,40,0.00,,---,0.00,VWS V13.01,2013-04-25 12:50:00,
2013-04-25 08:55:00,51.1,27.6,0.00,NE,35,4.0,5.4,40,0.00,,---,0.00,VWS V13.01,2013-04-25 12:55:00,
2013-04-25 09:00:00,51.3,26.5,0.00,NNE,27,2.7,2.7,38,0.00,,---,0.00,VWS V13.01,2013-04-25 13:00:00,
2013-04-25 09:05:00,51.6,26.9,0.00,NNE,33,3.1,5.4,38,0.00,,---,0.00,VWS V13.01,2013-04-25 13:05:00,
2013-04-25 09:10:00,51.8,26.4,0.00,NNE,20,3.6,6.7,37,0.00,,---,0.00,VWS V13.01,2013-04-25 13:10:00,
2013-04-25 09:15:00,52.3,26.9,0.00,North,349,2.7,6.7,37,0.00,,---,0.00,VWS V13.01,2013-04-25 13:15:00,
2013-04-25 09:20:00,53.1,28.1,0.00,North,353,4.0,5.4,38,0.00,,---,0.00,VWS V13.01,2013-04-25 13:20:00,
2013-04-25 09:25:00,53.6,28.0,0.00,North,357,0.0,5.4,37,0.00,,---,0.00,VWS V13.01,2013-04-25 13:25:00,
2013-04-25 09:30:00,54.0,27.6,0.00,NE,44,4.0,5.8,36,0.00,,---,0.00,VWS V13.01,2013-04-25 13:30:00,
2013-04-25 09:35:00,54.1,27.8,0.00,North,353,4.0,5.8,36,0.00,,---,0.00,VWS V13.01,2013-04-25 13:35:00,
2013-04-25 09:40:00,54.5,28.1,0.00,NNE,21,3.1,5.8,36,0.00,,---,0.00,VWS V13.01,2013-04-25 13:40:00,
2013-04-25 09:45:00,54.7,27.6,0.00,NE,44,4.0,6.3,35,0.00,,---,0.00,VWS V13.01,2013-04-25 13:45:00,
2013-04-25 09:50:00,55.4,28.9,0.00,ESE,116,0.0,6.3,36,0.00,,---,0.00,VWS V13.01,2013-04-25 13:50:00,
2013-04-25 09:55:00,56.1,28.9,0.00,ENE,76,3.6,6.3,35,0.00,,---,0.00,VWS V13.01,2013-04-25 13:55:00,
2013-04-25 10:00:00,56.5,29.2,0.00,North,353,3.1,4.0,35,0.00,,---,0.00,VWS V13.01,2013-04-25 14:00:00,
2013-04-25 10:05:00,56.7,27.9,0.00,NNE,31,2.2,5.4,33,0.00,,---,0.00,VWS V13.01,2013-04-25 14:05:00,
2013-04-25 10:10:00,57.0,29.0,0.00,NE,35,2.7,5.4,34,0.00,,---,0.00,VWS V13.01,2013-04-25 14:10:00,
2013-04-25 10:15:00,57.7,28.9,0.00,NNW,340,2.2,5.4,33,0.00,,---,0.00,VWS V13.01,2013-04-25 14:15:00,
2013-04-25 10:20:00,57.7,28.1,0.00,North,353,2.7,3.1,32,0.00,,---,0.00,VWS V13.01,2013-04-25 14:20:00,
2013-04-25 10:25:00,58.3,28.6,0.00,NNE,26,2.7,3.1,32,0.00,,---,0.00,VWS V13.01,2013-04-25 14:25:00,
2013-04-25 10:30:00,58.8,29.8,0.00,NW,313,2.7,4.0,33,0.00,,---,0.00,VWS V13.01,2013-04-25 14:30:00,
2013-04-25 10:35:00,59.4,28.7,0.00,ENE,68,5.8,6.3,31,0.00,,---,0.00,VWS V13.01,2013-04-25 14:35:00,
2013-04-25 10:40:00,59.4,27.9,0.00,NNE,21,2.2,2.2,30,0.00,,---,0.00,VWS V13.01,2013-04-25 14:40:00,
2013-04-25 10:45:00,59.5,28.9,0.00,ENE,69,3.1,4.9,31,0.00,,---,0.00,VWS V13.01,2013-04-25 14:45:00,
2013-04-25 10:50:00,60.3,30.3,0.00,ESE,116,3.1,4.9,32,0.00,,---,0.00,VWS V13.01,2013-04-25 14:50:00,
2013-04-25 10:55:00,60.8,30.0,0.00,NNE,23,0.0,6.3,31,0.00,,---,0.00,VWS V13.01,2013-04-25 14:55:00,
2013-04-25 11:00:00,60.6,28.2,0.00,ESE,123,2.7,3.1,29,0.00,,---,0.00,VWS V13.01,2013-04-25 15:00:00,
2013-04-25 11:05:00,60.6,29.0,0.00,NNE,24,0.0,3.1,30,0.00,,---,0.00,VWS V13.01,2013-04-25 15:05:00,
2013-04-25 11:10:00,61.2,28.7,0.00,NNE,24,4.0,5.8,29,0.00,,---,0.00,VWS V13.01,2013-04-25 15:10:00,
2013-04-25 11:15:00,61.0,28.5,0.00,NNE,24,4.0,5.8,29,0.00,,---,0.00,VWS V13.01,2013-04-25 15:15:00,
2013-04-25 11:20:00,61.0,28.5,0.00,NW,326,2.7,2.7,29,0.00,,---,0.00,VWS V13.01,2013-04-25 15:20:00,
2013-04-25 11:25:00,61.7,30.0,0.00,NNW,342,4.9,5.4,30,0.00,,---,0.00,VWS V13.01,2013-04-25 15:25:00,
2013-04-25 11:30:00,62.4,29.8,0.00,NW,317,5.4,5.4,29,0.00,,---,0.00,VWS V13.01,2013-04-25 15:30:00,
2013-04-25 11:35:00,62.4,29.8,0.00,NNW,335,3.1,5.8,29,0.00,,---,0.00,VWS V13.01,2013-04-25 15:35:00,
2013-04-25 11:40:00,62.8,29.2,0.00,North,0,3.6,3.6,28,0.00,,---,0.00,VWS V13.01,2013-04-25 15:40:00,
2013-04-25 11:45:00,63.1,29.5,0.00,North,0,3.6,3.6,28,0.00,,---,0.00,VWS V13.01,2013-04-25 15:45:00,
2013-04-25 11:50:00,63.7,30.0,0.00,SE,138,0.0,4.9,28,0.00,,---,0.00,VWS V13.01,2013-04-25 15:50:00,
2013-04-25 11:55:00,64.2,30.5,0.00,SE,126,0.0,4.9,28,0.00,,---,0.00,VWS V13.01,2013-04-25 15:55:00,
2013-04-25 12:00:00,64.6,29.9,0.00,NNE,29,3.6,3.6,27,0.00,,---,0.00,VWS V13.01,2013-04-25 16:00:00,
2013-04-25 12:05:00,64.0,29.4,0.00,NE,42,3.6,4.0,27,0.00,,---,0.00,VWS V13.01,2013-04-25 16:05:00,
2013-04-25 12:10:00,63.9,28.3,0.00,NE,41,0.0,5.8,26,0.00,,---,0.00,VWS V13.01,2013-04-25 16:10:00,
2013-04-25 12:15:00,63.7,29.1,0.00,NNE,15,2.2,6.3,27,0.00,,---,0.00,VWS V13.01,2013-04-25 16:15:00,
2013-04-25 12:20:00,64.4,29.7,0.00,NW,315,3.6,3.6,27,0.00,,---,0.00,VWS V13.01,2013-04-25 16:20:00,
2013-04-25 12:25:00,65.1,29.4,0.00,WSW,258,3.1,4.0,26,0.00,,---,0.00,VWS V13.01,2013-04-25 16:25:00,
2013-04-25 12:30:00,65.7,28.9,0.00,North,10,2.7,4.5,25,0.00,,---,0.00,VWS V13.01,2013-04-25 16:30:00,
2013-04-25 12:35:00,65.5,28.8,0.00,ESE,109,2.7,4.9,25,0.00,,---,0.00,VWS V13.01,2013-04-25 16:35:00,
2013-04-25 12:40:00,65.7,28.9,0.00,North,357,2.7,4.9,25,0.00,,---,0.00,VWS V13.01,2013-04-25 16:40:00,
2013-04-25 12:45:00,66.0,30.2,0.00,East,99,0.0,4.9,26,0.00,,---,0.00,VWS V13.01,2013-04-25 16:45:00,
2013-04-25 12:50:00,67.1,30.1,0.00,WNW,297,2.7,4.9,25,0.00,,---,0.00,VWS V13.01,2013-04-25 16:50:00,
2013-04-25 12:55:00,67.8,30.7,0.00,ENE,57,2.7,4.9,25,0.00,,---,0.00,VWS V13.01,2013-04-25 16:55:00,
2013-04-25 13:00:00,68.2,30.0,0.00,NE,38,2.2,3.1,24,0.00,,---,0.00,VWS V13.01,2013-04-25 17:00:00,
2013-04-25 13:05:00,68.2,30.0,0.00,NE,34,2.7,4.0,24,0.00,,---,0.00,VWS V13.01,2013-04-25 17:05:00,
2013-04-25 13:10:00,68.2,30.0,0.00,NNE,33,3.6,4.9,24,0.00,,---,0.00,VWS V13.01,2013-04-25 17:10:00,
2013-04-25 13:15:00,67.6,29.6,0.00,NE,42,0.0,4.9,24,0.00,,---,0.00,VWS V13.01,2013-04-25 17:15:00,
2013-04-25 13:20:00,68.4,30.2,0.00,WSW,244,0.0,2.7,24,0.00,,---,0.00,VWS V13.01,2013-04-25 17:20:00,
2013-04-25 13:25:00,69.3,29.9,0.00,NNW,335,3.6,5.8,23,0.00,,---,0.00,VWS V13.01,2013-04-25 17:25:00,
2013-04-25 13:30:00,69.3,29.9,0.00,North,353,0.0,5.8,23,0.00,,---,0.00,VWS V13.01,2013-04-25 17:30:00,
2013-04-25 13:35:00,69.1,29.8,0.00,North,353,2.7,5.8,23,0.00,,---,0.00,VWS V13.01,2013-04-25 17:35:00,
2013-04-25 13:40:00,69.3,29.9,0.00,WNW,284,2.7,2.7,23,0.00,,---,0.00,VWS V13.01,2013-04-25 17:40:00,
2013-04-25 13:45:00,70.2,30.7,0.00,East,84,2.2,3.6,23,0.00,,---,0.00,VWS V13.01,2013-04-25 17:45:00,
2013-04-25 13:50:00,70.2,30.7,0.00,NW,319,0.0,4.0,23,0.00,,---,0.00,VWS V13.01,2013-04-25 17:50:00,
2013-04-25 13:55:00,70.2,30.7,0.00,SE,141,0.0,4.9,23,0.00,,---,0.00,VWS V13.01,2013-04-25 17:55:00,
2013-04-25 14:00:00,70.9,31.3,0.00,SW,227,0.0,0.0,23,0.00,,---,0.00,VWS V13.01,2013-04-25 18:00:00,
2013-04-25 14:06:00,71.1,31.4,0.00,SSE,147,3.6,4.0,23,0.00,,---,0.00,VWS V13.01,2013-04-25 18:06:00,
2013-04-25 14:11:00,72.0,31.1,0.00,WNW,290,0.0,4.0,22,0.00,,---,0.00,VWS V13.01,2013-04-25 18:11:00,
2013-04-25 14:16:00,73.0,32.0,0.00,South,173,4.0,5.8,22,0.00,,---,0.00,VWS V13.01,2013-04-25 18:16:00,
2013-04-25 14:21:00,73.8,32.6,0.00,SW,219,3.6,5.4,22,0.00,,---,0.00,VWS V13.01,2013-04-25 18:21:00,
2013-04-25 14:26:00,73.9,31.6,0.00,SSW,199,0.0,5.4,21,0.00,,---,0.00,VWS V13.01,2013-04-25 18:26:00,
2013-04-25 14:30:00,73.4,31.1,0.00,East,89,0.0,5.4,21,0.00,,---,0.00,VWS V13.01,2013-04-25 18:30:00,
2013-04-25 14:35:00,73.2,32.1,0.00,West,268,0.0,5.4,22,0.00,,---,0.00,VWS V13.01,2013-04-25 18:35:00,
2013-04-25 14:40:00,73.6,31.3,0.00,NNW,328,0.0,3.6,21,0.00,,---,0.00,VWS V13.01,2013-04-25 18:40:00,
2013-04-25 14:45:00,73.9,31.6,0.00,North,353,0.0,4.0,21,0.00,,---,0.00,VWS V13.01,2013-04-25 18:45:00,
2013-04-25 14:50:00,73.8,31.4,0.00,North,357,0.0,4.0,21,0.00,,---,0.00,VWS V13.01,2013-04-25 18:50:00,
2013-04-25 14:55:00,74.1,31.7,0.00,NW,305,0.0,5.8,21,0.00,,---,0.00,VWS V13.01,2013-04-25 18:55:00,
2013-04-25 15:00:00,74.7,32.2,0.00,SSW,211,0.0,0.0,21,0.00,,---,0.00,VWS V13.01,2013-04-25 19:00:00,
2013-04-25 15:05:00,74.7,32.2,0.00,North,349,2.7,3.6,21,0.00,,---,0.00,VWS V13.01,2013-04-25 19:05:00,
2013-04-25 15:10:00,74.1,31.7,0.00,NW,313,2.7,4.9,21,0.00,,---,0.00,VWS V13.01,2013-04-25 19:10:00,
2013-04-25 15:15:00,73.9,31.6,0.00,NNW,333,2.2,4.9,21,0.00,,---,0.00,VWS V13.01,2013-04-25 19:15:00,
2013-04-25 15:20:00,74.1,31.7,0.00,North,353,3.1,3.6,21,0.00,,---,0.00,VWS V13.01,2013-04-25 19:20:00,
2013-04-25 15:25:00,73.8,27.6,0.00,NNE,32,3.1,5.4,18,0.00,,---,0.00,VWS V13.01,2013-04-25 19:25:00,
2013-04-25 15:30:00,73.2,28.5,0.00,NE,48,2.2,5.4,19,0.00,,---,0.00,VWS V13.01,2013-04-25 19:30:00,
2013-04-25 15:35:00,73.2,31.0,0.00,WNW,295,2.2,5.4,21,0.00,,---,0.00,VWS V13.01,2013-04-25 19:35:00,
2013-04-25 15:40:00,74.1,31.7,0.00,South,183,0.0,3.1,21,0.00,,---,0.00,VWS V13.01,2013-04-25 19:40:00,
2013-04-25 15:45:00,74.7,32.2,0.00,NW,312,2.2,4.0,21,0.00,,---,0.00,VWS V13.01,2013-04-25 19:45:00,
2013-04-25 15:50:00,75.4,31.6,0.00,WNW,282,2.2,4.0,20,0.00,,---,0.00,VWS V13.01,2013-04-25 19:50:00,
2013-04-25 15:55:00,75.9,32.0,0.00,SSW,206,2.2,4.0,20,0.00,,---,0.00,VWS V13.01,2013-04-25 19:55:00,
2013-04-25 16:00:00,75.7,29.3,0.00,NNE,28,3.1,5.8,18,0.00,,---,0.00,VWS V13.01,2013-04-25 20:00:00,
2013-04-25 16:05:00,74.5,28.2,0.00,NE,34,3.1,5.8,18,0.00,,---,0.00,VWS V13.01,2013-04-25 20:05:00,
2013-04-25 16:10:00,73.9,27.8,0.00,NNE,15,0.0,5.8,18,0.00,,---,0.00,VWS V13.01,2013-04-25 20:10:00,
2013-04-25 16:15:00,74.3,28.1,0.00,SW,214,0.0,5.8,18,0.00,,---,0.00,VWS V13.01,2013-04-25 20:15:00,
2013-04-25 16:20:00,74.8,28.5,0.00,SSE,156,2.7,2.7,18,0.00,,---,0.00,VWS V13.01,2013-04-25 20:20:00,
2013-04-25 16:25:00,75.2,28.8,0.00,SW,223,2.7,3.6,18,0.00,,---,0.00,VWS V13.01,2013-04-25 20:25:00,
2013-04-25 16:30:00,75.0,28.7,0.00,SW,231,3.6,5.4,18,0.00,,---,0.00,VWS V13.01,2013-04-25 20:30:00,
2013-04-25 16:35:00,75.0,28.7,0.00,SW,218,0.0,5.4,18,0.00,,---,0.00,VWS V13.01,2013-04-25 20:35:00,
2013-04-25 16:40:00,75.6,29.1,0.00,WSW,250,0.0,2.2,18,0.00,,---,0.00,VWS V13.01,2013-04-25 20:40:00,
2013-04-25 16:45:00,75.9,29.4,0.00,WSW,245,0.0,4.0,18,0.00,,---,0.00,VWS V13.01,2013-04-25 20:45:00,
2013-04-25 16:50:00,75.7,29.3,0.00,SE,127,3.6,8.3,18,0.00,,---,0.00,VWS V13.01,2013-04-25 20:50:00,
2013-04-25 16:55:00,75.0,25.8,0.00,SW,236,0.0,8.3,16,0.00,,---,0.00,VWS V13.01,2013-04-25 20:55:00,
2013-04-25 17:00:00,74.1,25.1,0.00,SW,216,0.0,2.7,16,0.00,,---,0.00,VWS V13.01,2013-04-25 21:00:00,
2013-04-25 17:05:00,73.6,27.5,0.00,NW,316,2.7,3.1,18,0.00,,---,0.00,VWS V13.01,2013-04-25 21:05:00,
2013-04-25 17:10:00,72.9,24.1,0.00,SSW,197,2.7,3.1,16,0.00,,---,0.00,VWS V13.01,2013-04-25 21:10:00,
2013-04-25 17:15:00,72.1,23.5,0.00,SSW,212,3.6,4.0,16,0.00,,---,0.00,VWS V13.01,2013-04-25 21:15:00,
2013-04-25 17:20:00,71.6,23.1,0.00,SSE,147,2.2,2.7,16,0.00,,---,0.00,VWS V13.01,2013-04-25 21:20:00,
2013-04-25 17:25:00,71.2,24.2,0.00,SSW,202,0.0,2.7,17,0.00,,---,0.00,VWS V13.01,2013-04-25 21:25:00,
2013-04-25 17:30:00,70.7,23.8,0.00,SSW,203,0.0,2.7,17,0.00,,---,0.00,VWS V13.01,2013-04-25 21:30:00,
2013-04-25 17:35:00,70.3,23.5,0.00,East,88,0.0,2.7,17,0.00,,---,0.00,VWS V13.01,2013-04-25 21:35:00,
2013-04-25 17:40:00,70.0,23.2,0.00,NNW,328,0.0,0.0,17,0.00,,---,0.00,VWS V13.01,2013-04-25 21:40:00,
2013-04-25 17:45:00,70.0,23.2,0.00,SE,142,2.7,4.9,17,0.00,,---,0.00,VWS V13.01,2013-04-25 21:45:00,
2013-04-25 17:50:00,69.8,23.1,0.00,WSW,242,0.0,4.9,17,0.00,,---,0.00,VWS V13.01,2013-04-25 21:50:00,
2013-04-25 17:55:00,69.8,23.1,0.00,West,259,3.1,4.9,17,0.00,,---,0.00,VWS V13.01,2013-04-25 21:55:00,
2013-04-25 18:00:00,69.8,23.1,0.00,SSW,202,2.2,3.1,17,0.00,,---,0.00,VWS V13.01,2013-04-25 22:00:00,
2013-04-25 18:05:00,69.6,22.9,0.00,SW,222,2.2,4.5,17,0.00,,---,0.00,VWS V13.01,2013-04-25 22:05:00,
2013-04-25 18:10:00,69.6,22.9,0.00,SW,233,2.7,4.5,17,0.00,,---,0.00,VWS V13.01,2013-04-25 22:10:00,
2013-04-25 18:15:00,69.4,26.7,0.00,East,79,2.7,4.5,20,0.00,,---,0.00,VWS V13.01,2013-04-25 22:15:00,
2013-04-25 18:20:00,69.3,26.5,0.00,East,86,0.0,0.0,20,0.00,,---,0.00,VWS V13.01,2013-04-25 22:20:00,
2013-04-25 18:25:00,69.3,26.5,0.00,SSW,207,0.0,3.6,20,0.00,,---,0.00,VWS V13.01,2013-04-25 22:25:00,
2013-04-25 18:30:00,69.4,26.7,0.00,SW,218,2.7,3.6,20,0.00,,---,0.00,VWS V13.01,2013-04-25 22:30:00,
2013-04-25 18:38:00,69.3,26.5,0.00,South,191,0.0,3.6,20,0.00,,---,0.00,VWS V13.01,2013-04-25 22:38:00,
2013-04-25 18:43:00,68.9,26.2,0.00,ESE,111,0.0,0.0,20,0.00,,---,0.00,VWS V13.01,2013-04-25 22:43:00,
2013-04-25 18:48:00,68.9,26.2,0.00,SE,140,0.0,0.0,20,0.00,,---,0.00,VWS V13.01,2013-04-25 22:48:00,
2013-04-25 18:53:00,68.7,26.1,0.00,SE,144,0.0,0.0,20,0.00,,---,0.00,VWS V13.01,2013-04-25 22:53:00,
2013-04-25 18:58:00,68.5,25.9,0.00,SSE,168,0.0,0.0,20,0.00,,---,0.00,VWS V13.01,2013-04-25 22:58:00,
2013-04-25 19:03:00,68.2,27.9,0.00,South,178,0.0,0.0,22,0.00,,---,0.00,VWS V13.01,2013-04-25 23:03:00,
2013-04-25 19:08:00,67.6,27.5,0.00,South,178,0.0,0.0,22,0.00,,---,0.00,VWS V13.01,2013-04-25 23:08:00,
2013-04-25 19:13:00,67.1,28.1,0.00,South,178,0.0,0.0,23,0.00,,---,0.00,VWS V13.01,2013-04-25 23:13:00,
2013-04-25 19:18:00,66.7,27.8,0.00,South,178,0.0,0.0,23,0.00,,---,0.00,VWS V13.01,2013-04-25 23:18:00,
2013-04-25 19:23:00,66.2,27.3,0.00,South,178,0.0,0.0,23,0.00,,---,0.00,VWS V13.01,2013-04-25 23:23:00,
2013-04-25 19:28:00,65.7,27.9,0.00,South,178,0.0,0.0,24,0.00,,---,0.00,VWS V13.01,2013-04-25 23:28:00,
2013-04-25 19:33:00,65.3,28.6,0.00,South,178,0.0,0.0,25,0.00,,---,0.00,VWS V13.01,2013-04-25 23:33:00,
2013-04-25 19:38:00,64.6,28.0,0.00,South,178,0.0,0.0,25,0.00,,---,0.00,VWS V13.01,2013-04-25 23:38:00,
2013-04-25 19:43:00,64.4,27.8,0.00,South,178,0.0,0.0,25,0.00,,---,0.00,VWS V13.01,2013-04-25 23:43:00,
2013-04-25 19:48:00,63.9,29.3,0.00,South,178,0.0,0.0,27,0.00,,---,0.00,VWS V13.01,2013-04-25 23:48:00,
2013-04-25 19:53:00,63.3,29.7,0.00,NW,306,0.0,0.0,28,0.00,,---,0.00,VWS V13.01,2013-04-25 23:53:00,
2013-04-25 19:58:00,62.6,30.8,0.00,NW,306,0.0,0.0,30,0.00,,---,0.00,VWS V13.01,2013-04-25 23:58:00,
2013-04-25 20:03:00,61.9,31.7,0.00,NW,306,0.0,0.0,32,0.00,,---,0.00,VWS V13.01,2013-04-26 00:03:00,
2013-04-25 20:08:00,61.2,32.6,0.00,NW,306,0.0,0.0,34,0.00,,---,0.00,VWS V13.01,2013-04-26 00:08:00,
2013-04-25 20:13:00,60.8,32.3,0.00,NW,311,0.0,0.0,34,0.00,,---,0.00,VWS V13.01,2013-04-26 00:13:00,
2013-04-25 20:18:00,60.3,32.5,0.00,NW,311,0.0,0.0,35,0.00,,---,0.00,VWS V13.01,2013-04-26 00:18:00,
2013-04-25 20:23:00,59.9,32.9,0.00,NW,311,0.0,0.0,36,0.00,,---,0.00,VWS V13.01,2013-04-26 00:23:00,
2013-04-25 20:28:00,59.5,33.3,0.00,NW,311,0.0,0.0,37,0.00,,---,0.00,VWS V13.01,2013-04-26 00:28:00,
2013-04-25 20:33:00,59.0,32.8,0.00,NNE,19,0.0,0.0,37,0.00,,---,0.00,VWS V13.01,2013-04-26 00:33:00,
2013-04-25 20:38:00,58.6,32.5,0.00,North,357,0.0,0.0,37,0.00,,---,0.00,VWS V13.01,2013-04-26 00:38:00,
2013-04-25 20:43:00,58.3,32.2,0.00,North,357,0.0,0.0,37,0.00,,---,0.00,VWS V13.01,2013-04-26 00:43:00,
2013-04-25 20:48:00,57.9,32.5,0.00,North,357,0.0,0.0,38,0.00,,---,0.00,VWS V13.01,2013-04-26 00:48:00,
2013-04-25 20:53:00,57.6,31.5,0.00,North,357,0.0,0.0,37,0.00,,---,0.00,VWS V13.01,2013-04-26 00:53:00,
2013-04-25 20:58:00,57.0,32.3,0.00,North,357,0.0,0.0,39,0.00,,---,0.00,VWS V13.01,2013-04-26 00:58:00,
2013-04-25 21:03:00,56.5,32.5,0.00,North,357,0.0,0.0,40,0.00,,---,0.00,VWS V13.01,2013-04-26 01:03:00,
2013-04-25 21:08:00,56.1,32.8,0.00,North,357,0.0,0.0,41,0.00,,---,0.00,VWS V13.01,2013-04-26 01:08:00,
2013-04-25 21:13:00,55.9,33.2,0.00,NNW,330,0.0,0.0,42,0.00,,---,0.00,VWS V13.01,2013-04-26 01:13:00,
2013-04-25 21:18:00,55.4,34.4,0.00,NNW,330,0.0,0.0,45,0.00,,---,0.00,VWS V13.01,2013-04-26 01:18:00,
2013-04-25 21:23:00,55.0,34.1,0.00,NNW,330,0.0,0.0,45,0.00,,---,0.00,VWS V13.01,2013-04-26 01:23:00,
2013-04-25 21:28:00,54.9,33.9,0.00,NNW,330,0.0,0.0,45,0.00,,---,0.00,VWS V13.01,2013-04-26 01:28:00,
2013-04-25 21:33:00,54.5,33.6,0.00,NNW,330,0.0,0.0,45,0.00,,---,0.00,VWS V13.01,2013-04-26 01:33:00,
2013-04-25 21:38:00,54.1,33.8,0.00,NNW,330,0.0,0.0,46,0.00,,---,0.00,VWS V13.01,2013-04-26 01:38:00,
2013-04-25 21:43:00,53.8,33.5,0.00,NNW,330,0.0,0.0,46,0.00,,---,0.00,VWS V13.01,2013-04-26 01:43:00,
2013-04-25 21:48:00,53.6,33.3,0.00,NNW,330,0.0,0.0,46,0.00,,---,0.00,VWS V13.01,2013-04-26 01:48:00,
2013-04-25 21:53:00,53.2,33.5,0.00,NNW,330,0.0,0.0,47,0.00,,---,0.00,VWS V13.01,2013-04-26 01:53:00,
2013-04-25 21:58:00,53.2,33.5,0.00,NNW,330,0.0,0.0,47,0.00,,---,0.00,VWS V13.01,2013-04-26 01:58:00,
2013-04-25 22:03:00,53.1,33.4,0.00,NNW,330,0.0,0.0,47,0.00,,---,0.00,VWS V13.01,2013-04-26 02:03:00,
2013-04-25 22:08:00,52.7,33.0,0.00,NNW,330,0.0,0.0,47,0.00,,---,0.00,VWS V13.01,2013-04-26 02:08:00,
2013-04-25 22:13:00,52.3,32.7,0.00,NNW,330,0.0,0.0,47,0.00,,---,0.00,VWS V13.01,2013-04-26 02:13:00,
2013-04-25 22:18:00,52.2,32.6,0.00,NNW,330,0.0,0.0,47,0.00,,---,0.00,VWS V13.01,2013-04-26 02:18:00,
2013-04-25 22:23:00,52.2,33.1,0.00,NNW,330,0.0,0.0,48,0.00,,---,0.00,VWS V13.01,2013-04-26 02:23:00,
2013-04-25 22:28:00,51.8,32.8,0.00,NNW,330,0.0,0.0,48,0.00,,---,0.00,VWS V13.01,2013-04-26 02:28:00,
2013-04-25 22:33:00,51.4,32.9,0.00,NNW,330,0.0,0.0,49,0.00,,---,0.00,VWS V13.01,2013-04-26 02:33:00,
2013-04-25 22:38:00,51.3,32.8,0.00,NNW,330,0.0,0.0,49,0.00,,---,0.00,VWS V13.01,2013-04-26 02:38:00,
2013-04-25 22:43:00,51.3,32.8,0.00,NNW,330,0.0,0.0,49,0.00,,---,0.00,VWS V13.01,2013-04-26 02:43:00,
2013-04-25 22:48:00,51.1,33.1,0.00,NNW,330,0.0,0.0,50,0.00,,---,0.00,VWS V13.01,2013-04-26 02:48:00,
2013-04-25 22:53:00,50.7,32.8,0.00,NNW,330,0.0,0.0,50,0.00,,---,0.00,VWS V13.01,2013-04-26 02:53:00,
2013-04-25 22:58:00,50.5,32.6,0.00,NNW,330,0.0,0.0,50,0.00,,---,0.00,VWS V13.01,2013-04-26 02:58:00,
2013-04-25 23:03:00,50.2,32.8,0.00,NNW,330,0.0,0.0,51,0.00,,---,0.00,VWS V13.01,2013-04-26 03:03:00,
2013-04-25 23:08:00,50.0,32.6,0.00,NNW,330,0.0,0.0,51,0.00,,---,0.00,VWS V13.01,2013-04-26 03:08:00,
2013-04-25 23:13:00,49.8,32.9,0.00,NNW,330,0.0,0.0,52,0.00,,---,0.00,VWS V13.01,2013-04-26 03:13:00,
2013-04-25 23:18:00,49.6,32.8,0.00,NNW,330,0.0,0.0,52,0.00,,---,0.00,VWS V13.01,2013-04-26 03:18:00,
2013-04-25 23:23:00,49.5,32.6,0.00,NNW,330,0.0,0.0,52,0.00,,---,0.00,VWS V13.01,2013-04-26 03:23:00,
2013-04-25 23:28:00,49.1,31.8,0.00,NNW,330,0.0,0.0,51,0.00,,---,0.00,VWS V13.01,2013-04-26 03:28:00,
2013-04-25 23:33:00,48.7,31.4,0.00,NNW,330,0.0,0.0,51,0.00,,---,0.00,VWS V13.01,2013-04-26 03:33:00,
2013-04-25 23:38:00,48.7,31.9,0.00,NNW,330,0.0,0.0,52,0.00,,---,0.00,VWS V13.01,2013-04-26 03:38:00,
2013-04-25 23:43:00,48.6,31.8,0.00,NNW,330,0.0,0.0,52,0.00,,---,0.00,VWS V13.01,2013-04-26 03:43:00,
2013-04-25 23:48:00,48.4,31.6,0.00,NNW,330,0.0,0.0,52,0.00,,---,0.00,VWS V13.01,2013-04-26 03:48:00,
2013-04-25 23:53:00,48.2,31.9,0.00,NNW,330,0.0,0.0,53,0.00,,---,0.00,VWS V13.01,2013-04-26 03:53:00,
2013-04-25 23:58:00,48.0,31.7,0.00,NNW,330,0.0,0.0,53,0.00,,---,0.00,VWS V13.01,2013-04-26 03:58:00,